Ana Sayfa
METAR-TAF:

METAR-TAF

Havaalanları :

Talara, Peru

Enlem: 04-34S, Boylam: 081-15W, yükseklik: 85 m

Güncel hava durumu gözlemi

Rapor saat 23:00 UTC de 7 saat ve 18 dakika önce yapıldı.
Rüzgar güneydan 15 kt
Sıcaklık 24°C
Nem 69%
Basınç 1010 hPa
Görüş mesafesi 10 km veya daha fazla
1500 m altında bulut yok ve kümülonimbus yok

METAR: SPYL 152300Z 18015KT CAVOK 24/18 Q1010 RMK BIRD HAZARD RWY 17/35 PP000

Saat: 01:18 (06:18 UTC)

Tahmin

Rapor saat 23:00 UTC de 7 saat ve 18 dakika önce yapıldı.
Ayın 16'si saat 00 UTC'den ayın 16'si saat 24 UTC'ye kadar geçerli Tahmin
Rüzgar güney/güneydoğudan 14 kt
Görüş mesafesi 10 km veya daha fazla
1500 m altında bulut yok ve kümülonimbus yok

TAF: SPYL 152300Z 1600/1624 15014KT CAVOK TX31/1620Z TN20/1611Z

4.000'den fazla havaalanı için hava durumu gözlemleri ve tahminleri (METAR ve TAF raporları).

Kullanılabilir istasyonlar harita üzerinde sarı ve kırmızı noktalarla gösterilir.

İstasyonun adını görmek için fareyi noktanın üzerinde gezdirin.

Sonrasında hava gözlem ve tahminlerini görmek için tıklayın.

Haritayı değiştirmek için: yaklaştırmak için siyah artı işaretli yeşil düğmeye ve uzaklaştırmak için de eksi işaretli düğmeye hızla tıklayın; bitişik haritalar için yeşil okları kullanın.


METAR-TAF: